createdAt,value
2022-09-18T04:31:45.764Z,3.33
2022-09-18T04:36:48.450Z,3.20
2022-09-18T04:41:51.595Z,3.37
2022-09-18T04:46:54.497Z,3.27
2022-09-18T04:51:57.170Z,2.90
2022-09-18T04:56:59.793Z,2.90
2022-09-18T05:02:02.903Z,3.50
2022-09-18T05:07:06.301Z,3.50
2022-09-18T05:12:09.921Z,3.50
2022-09-18T05:17:12.613Z,3.83
2022-09-18T05:22:15.321Z,3.50
2022-09-18T05:27:17.992Z,3.30
2022-09-18T05:32:20.789Z,3.40
2022-09-18T05:37:23.432Z,3.43
2022-09-18T05:42:26.055Z,4.37
2022-09-18T05:47:28.693Z,3.70
2022-09-18T05:52:31.378Z,3.67
2022-09-18T05:57:34.041Z,3.00
2022-09-18T06:02:36.743Z,3.07
2022-09-18T06:07:39.621Z,3.10
2022-09-18T06:12:42.680Z,4.20
2022-09-18T06:17:52.181Z,3.40
2022-09-18T06:22:55.130Z,3.50
2022-09-18T06:27:58.875Z,3.37
2022-09-18T06:33:06.597Z,3.80
2022-09-18T06:38:11.021Z,3.70
2022-09-18T06:43:14.078Z,3.93
2022-09-18T06:48:16.688Z,3.77
2022-09-18T06:53:19.462Z,4.10
2022-09-18T06:58:22.163Z,3.73
2022-09-18T07:03:24.760Z,4.50
2022-09-18T07:08:27.408Z,3.87
2022-09-18T07:13:33.765Z,3.93
2022-09-18T07:18:36.401Z,4.10
2022-09-18T07:23:39.061Z,4.07
2022-09-18T07:28:41.685Z,4.40
2022-09-18T07:33:45.354Z,3.87
2022-09-18T07:38:52.509Z,3.77
2022-09-18T07:43:55.257Z,3.60
2022-09-18T07:48:57.933Z,3.43
2022-09-18T07:54:00.620Z,3.17
2022-09-18T07:59:03.389Z,3.57
2022-09-18T08:04:06.540Z,3.03
2022-09-18T08:09:09.185Z,3.13
2022-09-18T08:14:12.359Z,2.97
2022-09-18T08:19:15.024Z,2.67
2022-09-18T08:24:18.096Z,2.50
2022-09-18T08:29:23.652Z,2.43
2022-09-18T08:34:27.791Z,2.37
2022-09-18T08:39:30.913Z,2.07
2022-09-18T08:44:49.778Z,2.50
2022-09-18T08:49:59.787Z,1.80
2022-09-18T08:55:25.581Z,2.43
2022-09-18T09:00:43.894Z,2.83
2022-09-18T09:05:50.736Z,2.50
2022-09-18T09:11:20.686Z,2.43
2022-09-18T09:16:49.617Z,2.87
2022-09-18T09:22:38.875Z,2.97
2022-09-18T09:27:55.156Z,3.20
2022-09-18T09:33:11.957Z,2.73
2022-09-18T09:38:31.573Z,2.70
2022-09-18T09:44:20.942Z,2.80
2022-09-18T09:49:29.164Z,2.90
2022-09-18T09:54:32.843Z,2.70
2022-09-18T09:59:56.612Z,30.67
2022-09-18T10:05:02.857Z,19.47
2022-09-18T10:10:18.060Z,21.63
2022-09-18T10:15:36.819Z,9.83
2022-09-18T10:20:41.364Z,5.53
2022-09-18T10:25:50.071Z,1.60
2022-09-18T10:30:54.295Z,1.30
2022-09-18T10:36:10.385Z,1.30
2022-09-18T10:41:37.071Z,1.63
2022-09-18T10:46:50.349Z,1.60
2022-09-18T10:52:14.789Z,1.40
2022-09-18T10:57:37.058Z,4.97
2022-09-18T11:02:51.692Z,2.00
2022-09-18T11:07:56.428Z,1.90
2022-09-18T11:13:02.220Z,2.20
2022-09-18T11:18:06.753Z,2.50
2022-09-18T11:23:15.892Z,2.40
2022-09-18T11:28:26.211Z,2.37
2022-09-18T11:33:36.448Z,2.07
2022-09-18T11:38:41.236Z,2.10
2022-09-18T11:43:44.615Z,1.73
2022-09-18T11:49:03.794Z,1.70
2022-09-18T11:54:22.200Z,2.07
2022-09-18T11:59:58.014Z,1.27
2022-09-18T12:05:19.092Z,1.10
2022-09-18T12:10:45.672Z,1.30
2022-09-18T12:15:56.076Z,1.30
2022-09-18T12:21:05.274Z,1.40
2022-09-18T12:26:13.017Z,1.07
2022-09-18T12:31:28.988Z,1.03
2022-09-18T12:36:43.796Z,1.20
2022-09-18T12:41:53.337Z,1.20
2022-09-18T12:47:20.582Z,1.13
2022-09-18T12:52:27.745Z,1.23
2022-09-18T12:57:40.620Z,1.53
2022-09-18T13:03:03.194Z,1.47
2022-09-18T13:08:15.351Z,1.60
2022-09-18T13:13:48.894Z,1.60
2022-09-18T13:18:58.506Z,1.93
2022-09-18T13:24:01.920Z,2.00
2022-09-18T13:29:24.604Z,2.57
2022-09-18T13:34:27.311Z,2.20
2022-09-18T13:39:46.078Z,2.70
2022-09-18T13:44:55.087Z,2.60
2022-09-18T13:50:00.084Z,3.03
2022-09-18T13:55:27.833Z,3.10
2022-09-18T14:00:33.201Z,3.50
2022-09-18T14:05:38.693Z,2.53
2022-09-18T14:11:15.100Z,2.83
2022-09-18T14:16:22.339Z,2.70
2022-09-18T14:21:31.978Z,3.30
2022-09-18T14:26:37.173Z,2.80
2022-09-18T14:31:51.196Z,3.13
2022-09-18T14:36:58.691Z,3.67
2022-09-18T14:42:30.788Z,3.20
2022-09-18T14:47:35.731Z,3.47
2022-09-18T14:52:44.646Z,2.90
2022-09-18T14:57:53.687Z,3.20
2022-09-18T15:02:59.364Z,3.00
2022-09-18T15:08:08.698Z,3.50
2022-09-18T15:13:15.324Z,3.27
2022-09-18T15:18:27.555Z,4.00
2022-09-18T15:23:39.438Z,4.90
2022-09-18T15:28:45.197Z,4.17
2022-09-18T15:34:08.532Z,3.40
2022-09-18T15:39:34.914Z,3.53
2022-09-18T15:44:49.824Z,2.90
2022-09-18T15:49:52.895Z,3.70
2022-09-18T15:55:18.149Z,3.53
2022-09-18T16:00:22.904Z,4.67
2022-09-18T16:05:26.776Z,3.93
2022-09-18T16:10:36.324Z,4.00
2022-09-18T16:15:40.313Z,4.20
2022-09-18T16:20:47.348Z,3.60
2022-09-18T16:26:05.968Z,4.13
2022-09-18T16:31:09.037Z,4.70
2022-09-18T16:36:24.359Z,4.47
2022-09-18T16:41:27.498Z,4.77
2022-09-18T16:46:37.979Z,4.37
2022-09-18T16:51:40.697Z,5.27
2022-09-18T16:56:51.745Z,5.60
2022-09-18T17:02:03.701Z,5.43
2022-09-18T17:07:07.138Z,5.03
2022-09-18T17:12:09.969Z,4.73
2022-09-18T17:17:13.601Z,5.27
2022-09-18T17:22:19.035Z,4.80
2022-09-18T17:27:25.903Z,3.93
2022-09-18T17:32:28.533Z,4.30
2022-09-18T17:37:31.663Z,4.67
2022-09-18T17:42:35.297Z,5.07
2022-09-18T17:47:38.013Z,4.97
2022-09-18T17:52:40.841Z,5.20
2022-09-18T17:57:44.042Z,4.17
2022-09-18T18:02:47.074Z,3.30
2022-09-18T18:07:49.732Z,3.13
2022-09-18T18:12:52.432Z,3.07
2022-09-18T18:17:55.098Z,3.43
2022-09-18T18:22:57.870Z,3.43
2022-09-18T18:28:01.732Z,3.10
2022-09-18T18:33:05.781Z,3.17
2022-09-18T18:38:08.665Z,3.87
2022-09-18T18:43:15.125Z,3.43
2022-09-18T18:48:18.112Z,4.27
2022-09-18T18:53:21.580Z,3.80
2022-09-18T18:58:24.893Z,3.60
2022-09-18T19:03:28.977Z,3.13
2022-09-18T19:08:32.130Z,3.17
2022-09-18T19:13:41.451Z,3.47
2022-09-18T19:18:45.047Z,4.70
2022-09-18T19:23:54.464Z,4.70
2022-09-18T19:29:00.780Z,5.80
2022-09-18T19:34:07.567Z,6.80
2022-09-18T19:39:12.284Z,7.17
2022-09-18T19:44:37.985Z,7.77
2022-09-18T19:49:44.215Z,8.57
2022-09-18T19:54:49.269Z,8.93
2022-09-18T19:59:54.396Z,8.37
2022-09-18T20:04:58.060Z,7.63
2022-09-18T20:10:00.960Z,8.03
2022-09-18T20:15:04.516Z,7.83
2022-09-18T20:20:09.671Z,7.93
2022-09-18T20:25:13.836Z,7.17
2022-09-18T20:30:18.243Z,7.23
2022-09-18T20:35:22.001Z,7.37
2022-09-18T20:40:25.520Z,6.83
2022-09-18T20:45:39.155Z,6.43
2022-09-18T20:50:43.312Z,7.10
2022-09-18T20:55:46.743Z,7.43
2022-09-18T21:00:49.901Z,7.30
2022-09-18T21:06:07.499Z,6.40
2022-09-18T21:11:24.767Z,6.20
2022-09-18T21:16:29.748Z,5.97
2022-09-18T21:21:34.052Z,6.07
2022-09-18T21:26:38.607Z,5.53
2022-09-18T21:31:45.974Z,6.13
2022-09-18T21:36:49.158Z,6.50
2022-09-18T21:41:53.582Z,5.73
2022-09-18T21:47:02.121Z,5.80
2022-09-18T21:52:07.092Z,5.40
2022-09-18T21:57:09.945Z,5.30
2022-09-18T22:02:13.766Z,4.93
2022-09-18T22:07:18.479Z,3.70
2022-09-18T22:12:21.283Z,3.50
2022-09-18T22:17:25.318Z,3.73
2022-09-18T22:22:28.199Z,3.47
2022-09-18T22:27:30.933Z,4.27
2022-09-18T22:32:33.816Z,4.07
2022-09-18T22:37:37.328Z,3.80
2022-09-18T22:42:40.200Z,3.70
2022-09-18T22:47:42.930Z,3.70
2022-09-18T22:52:45.772Z,3.50
2022-09-18T22:57:48.553Z,3.63
2022-09-18T23:02:52.012Z,3.47
2022-09-18T23:07:54.741Z,3.80
2022-09-18T23:12:57.414Z,3.67
2022-09-18T23:18:00.963Z,3.50
2022-09-18T23:23:03.790Z,3.70
2022-09-18T23:28:06.736Z,2.77
